sensor_id;sensor_type;location;lat;lon;timestamp;temperature;humidity
14473;DHT22;7322;50.872;4.386;2024-03-29T00:00:10;17.50;99.90
14473;DHT22;7322;50.872;4.386;2024-03-29T00:02:42;17.60;99.90
14473;DHT22;7322;50.872;4.386;2024-03-29T00:05:39;17.50;99.90
14473;DHT22;7322;50.872;4.386;2024-03-29T00:08:22;17.50;99.90
14473;DHT22;7322;50.872;4.386;2024-03-29T00:10:49;17.60;99.90
14473;DHT22;7322;50.872;4.386;2024-03-29T00:13:21;17.50;99.90
14473;DHT22;7322;50.872;4.386;2024-03-29T00:15:52;17.50;99.90
14473;DHT22;7322;50.872;4.386;2024-03-29T00:18:22;17.40;99.90
14473;DHT22;7322;50.872;4.386;2024-03-29T00:20:49;17.50;99.90
14473;DHT22;7322;50.872;4.386;2024-03-29T00:23:19;17.50;99.90
14473;DHT22;7322;50.872;4.386;2024-03-29T00:25:45;17.50;99.90
14473;DHT22;7322;50.872;4.386;2024-03-29T00:28:11;17.50;99.90
14473;DHT22;7322;50.872;4.386;2024-03-29T00:30:38;17.50;99.90
14473;DHT22;7322;50.872;4.386;2024-03-29T00:33:06;17.40;99.90
14473;DHT22;7322;50.872;4.386;2024-03-29T00:35:32;17.50;99.90
14473;DHT22;7322;50.872;4.386;2024-03-29T00:37:58;17.50;99.90
14473;DHT22;7322;50.872;4.386;2024-03-29T00:40:27;17.50;99.90
14473;DHT22;7322;50.872;4.386;2024-03-29T00:42:55;17.50;99.90
14473;DHT22;7322;50.872;4.386;2024-03-29T00:45:21;17.50;99.90
14473;DHT22;7322;50.872;4.386;2024-03-29T00:47:50;17.50;99.90
14473;DHT22;7322;50.872;4.386;2024-03-29T00:50:20;17.50;99.90
14473;DHT22;7322;50.872;4.386;2024-03-29T00:52:51;17.50;99.90
14473;DHT22;7322;50.872;4.386;2024-03-29T00:55:22;17.50;99.90
14473;DHT22;7322;50.872;4.386;2024-03-29T00:57:49;17.50;99.90
14473;DHT22;7322;50.872;4.386;2024-03-29T01:00:16;17.50;99.90
14473;DHT22;7322;50.872;4.386;2024-03-29T01:02:44;17.50;99.90
14473;DHT22;7322;50.872;4.386;2024-03-29T01:05:23;17.50;99.90
14473;DHT22;7322;50.872;4.386;2024-03-29T01:08:06;17.50;99.90
14473;DHT22;7322;50.872;4.386;2024-03-29T01:10:43;17.50;99.90
14473;DHT22;7322;50.872;4.386;2024-03-29T01:13:09;17.50;99.90
14473;DHT22;7322;50.872;4.386;2024-03-29T01:15:35;17.40;99.90
14473;DHT22;7322;50.872;4.386;2024-03-29T01:18:11;17.50;99.90
14473;DHT22;7322;50.872;4.386;2024-03-29T01:20:47;17.50;99.90
14473;DHT22;7322;50.872;4.386;2024-03-29T01:23:21;17.50;99.90
14473;DHT22;7322;50.872;4.386;2024-03-29T01:25:49;17.50;99.90
14473;DHT22;7322;50.872;4.386;2024-03-29T01:28:15;17.50;99.90
14473;DHT22;7322;50.872;4.386;2024-03-29T01:30:41;17.60;99.90
14473;DHT22;7322;50.872;4.386;2024-03-29T01:33:11;17.50;99.90
14473;DHT22;7322;50.872;4.386;2024-03-29T01:35:43;17.50;99.90
14473;DHT22;7322;50.872;4.386;2024-03-29T01:38:30;17.60;99.90
14473;DHT22;7322;50.872;4.386;2024-03-29T01:40:59;17.50;99.90
14473;DHT22;7322;50.872;4.386;2024-03-29T01:43:27;17.50;99.90
14473;DHT22;7322;50.872;4.386;2024-03-29T01:45:55;17.50;99.90
14473;DHT22;7322;50.872;4.386;2024-03-29T01:48:24;17.60;99.90
14473;DHT22;7322;50.872;4.386;2024-03-29T01:50:55;17.50;99.90
14473;DHT22;7322;50.872;4.386;2024-03-29T01:53:23;17.50;99.90
14473;DHT22;7322;50.872;4.386;2024-03-29T01:55:56;17.50;99.90
14473;DHT22;7322;50.872;4.386;2024-03-29T01:58:32;17.50;99.90
14473;DHT22;7322;50.872;4.386;2024-03-29T02:01:03;17.50;99.90
14473;DHT22;7322;50.872;4.386;2024-03-29T02:03:34;17.40;99.90
14473;DHT22;7322;50.872;4.386;2024-03-29T02:06:02;17.50;99.90
14473;DHT22;7322;50.872;4.386;2024-03-29T02:08:35;17.50;99.90
14473;DHT22;7322;50.872;4.386;2024-03-29T02:11:10;17.40;99.90
14473;DHT22;7322;50.872;4.386;2024-03-29T02:13:44;17.50;99.90
14473;DHT22;7322;50.872;4.386;2024-03-29T02:16:20;17.40;99.90
14473;DHT22;7322;50.872;4.386;2024-03-29T02:18:51;17.50;99.90
14473;DHT22;7322;50.872;4.386;2024-03-29T02:21:22;17.40;99.90
14473;DHT22;7322;50.872;4.386;2024-03-29T02:24:04;17.50;99.90
14473;DHT22;7322;50.872;4.386;2024-03-29T02:26:41;17.40;99.90
14473;DHT22;7322;50.872;4.386;2024-03-29T02:29:09;17.30;99.90
14473;DHT22;7322;50.872;4.386;2024-03-29T02:31:36;17.40;99.90
14473;DHT22;7322;50.872;4.386;2024-03-29T02:34:04;17.50;99.90
14473;DHT22;7322;50.872;4.386;2024-03-29T02:36:33;17.40;99.90
14473;DHT22;7322;50.872;4.386;2024-03-29T02:39:03;17.40;99.90
14473;DHT22;7322;50.872;4.386;2024-03-29T02:41:30;17.40;99.90
14473;DHT22;7322;50.872;4.386;2024-03-29T02:43:59;17.40;99.90
14473;DHT22;7322;50.872;4.386;2024-03-29T02:46:39;17.40;99.90
14473;DHT22;7322;50.872;4.386;2024-03-29T02:49:08;17.40;99.90
14473;DHT22;7322;50.872;4.386;2024-03-29T02:51:39;17.40;99.90
14473;DHT22;7322;50.872;4.386;2024-03-29T02:54:08;17.40;99.90
14473;DHT22;7322;50.872;4.386;2024-03-29T02:56:36;17.40;99.90
14473;DHT22;7322;50.872;4.386;2024-03-29T02:59:03;17.40;99.90
14473;DHT22;7322;50.872;4.386;2024-03-29T03:01:31;17.40;99.90
14473;DHT22;7322;50.872;4.386;2024-03-29T03:03:58;17.40;99.90
14473;DHT22;7322;50.872;4.386;2024-03-29T03:06:24;17.40;99.90
14473;DHT22;7322;50.872;4.386;2024-03-29T03:08:53;17.40;99.90
14473;DHT22;7322;50.872;4.386;2024-03-29T03:11:39;17.50;99.90
14473;DHT22;7322;50.872;4.386;2024-03-29T03:14:07;17.40;99.90
14473;DHT22;7322;50.872;4.386;2024-03-29T03:16:35;17.50;99.90
14473;DHT22;7322;50.872;4.386;2024-03-29T03:19:03;17.40;99.90
14473;DHT22;7322;50.872;4.386;2024-03-29T03:21:29;17.40;99.90
14473;DHT22;7322;50.872;4.386;2024-03-29T03:23:58;17.40;99.90
14473;DHT22;7322;50.872;4.386;2024-03-29T03:26:24;17.40;99.90
14473;DHT22;7322;50.872;4.386;2024-03-29T03:28:53;17.40;99.90
14473;DHT22;7322;50.872;4.386;2024-03-29T03:31:20;17.40;99.90
14473;DHT22;7322;50.872;4.386;2024-03-29T03:33:47;17.40;99.90
14473;DHT22;7322;50.872;4.386;2024-03-29T03:36:16;17.30;99.90
14473;DHT22;7322;50.872;4.386;2024-03-29T03:38:47;17.40;99.90
14473;DHT22;7322;50.872;4.386;2024-03-29T03:41:14;17.40;99.90
14473;DHT22;7322;50.872;4.386;2024-03-29T03:43:43;17.40;99.90
14473;DHT22;7322;50.872;4.386;2024-03-29T03:46:19;17.30;99.90
14473;DHT22;7322;50.872;4.386;2024-03-29T03:48:54;17.40;99.90
14473;DHT22;7322;50.872;4.386;2024-03-29T03:51:25;17.40;99.90
14473;DHT22;7322;50.872;4.386;2024-03-29T03:54:03;17.40;99.90
14473;DHT22;7322;50.872;4.386;2024-03-29T03:56:46;17.40;99.90
14473;DHT22;7322;50.872;4.386;2024-03-29T03:59:33;17.30;99.90
14473;DHT22;7322;50.872;4.386;2024-03-29T04:02:02;17.30;99.90
14473;DHT22;7322;50.872;4.386;2024-03-29T04:04:32;17.30;99.90
14473;DHT22;7322;50.872;4.386;2024-03-29T04:06:59;17.30;99.90
14473;DHT22;7322;50.872;4.386;2024-03-29T04:09:27;17.30;99.90
14473;DHT22;7322;50.872;4.386;2024-03-29T04:11:54;17.30;99.90
14473;DHT22;7322;50.872;4.386;2024-03-29T04:14:25;17.30;99.90
14473;DHT22;7322;50.872;4.386;2024-03-29T04:16:52;17.30;99.90
14473;DHT22;7322;50.872;4.386;2024-03-29T04:19:26;17.30;99.90
14473;DHT22;7322;50.872;4.386;2024-03-29T04:21:53;17.30;99.90
14473;DHT22;7322;50.872;4.386;2024-03-29T04:24:34;17.30;99.90
14473;DHT22;7322;50.872;4.386;2024-03-29T04:27:04;17.30;99.90
14473;DHT22;7322;50.872;4.386;2024-03-29T04:29:32;17.30;99.90
14473;DHT22;7322;50.872;4.386;2024-03-29T04:31:59;17.30;99.90
14473;DHT22;7322;50.872;4.386;2024-03-29T04:34:28;17.30;99.90
14473;DHT22;7322;50.872;4.386;2024-03-29T04:36:54;17.30;99.90
14473;DHT22;7322;50.872;4.386;2024-03-29T04:39:22;17.30;99.90
14473;DHT22;7322;50.872;4.386;2024-03-29T04:41:50;17.30;99.90
14473;DHT22;7322;50.872;4.386;2024-03-29T04:44:24;17.30;99.90
14473;DHT22;7322;50.872;4.386;2024-03-29T04:46:56;17.30;99.90
14473;DHT22;7322;50.872;4.386;2024-03-29T04:49:24;17.30;99.90
14473;DHT22;7322;50.872;4.386;2024-03-29T04:52:00;17.30;99.90
14473;DHT22;7322;50.872;4.386;2024-03-29T04:54:28;17.30;99.90
14473;DHT22;7322;50.872;4.386;2024-03-29T04:56:56;17.20;99.90
14473;DHT22;7322;50.872;4.386;2024-03-29T04:59:24;17.30;99.90
14473;DHT22;7322;50.872;4.386;2024-03-29T05:01:53;17.30;99.90
14473;DHT22;7322;50.872;4.386;2024-03-29T05:04:31;17.30;99.90
14473;DHT22;7322;50.872;4.386;2024-03-29T05:07:00;17.30;99.90
14473;DHT22;7322;50.872;4.386;2024-03-29T05:09:28;17.30;99.90
14473;DHT22;7322;50.872;4.386;2024-03-29T05:11:56;17.30;99.90
14473;DHT22;7322;50.872;4.386;2024-03-29T05:14:25;17.30;99.90
14473;DHT22;7322;50.872;4.386;2024-03-29T05:17:02;17.20;99.90
14473;DHT22;7322;50.872;4.386;2024-03-29T05:19:34;17.30;99.90
14473;DHT22;7322;50.872;4.386;2024-03-29T05:22:04;17.20;99.90
14473;DHT22;7322;50.872;4.386;2024-03-29T05:24:32;17.20;99.90
14473;DHT22;7322;50.872;4.386;2024-03-29T05:26:59;17.20;99.90
14473;DHT22;7322;50.872;4.386;2024-03-29T05:29:26;17.20;99.90
14473;DHT22;7322;50.872;4.386;2024-03-29T05:31:53;17.20;99.90
14473;DHT22;7322;50.872;4.386;2024-03-29T05:34:20;17.30;99.90
14473;DHT22;7322;50.872;4.386;2024-03-29T05:36:47;17.30;99.90
14473;DHT22;7322;50.872;4.386;2024-03-29T05:39:17;17.30;99.90
14473;DHT22;7322;50.872;4.386;2024-03-29T05:41:44;17.20;99.90
14473;DHT22;7322;50.872;4.386;2024-03-29T05:44:12;17.20;99.90
14473;DHT22;7322;50.872;4.386;2024-03-29T05:46:44;17.20;99.90
14473;DHT22;7322;50.872;4.386;2024-03-29T05:49:25;17.20;99.90
14473;DHT22;7322;50.872;4.386;2024-03-29T05:55:46;17.20;99.90
14473;DHT22;7322;50.872;4.386;2024-03-29T05:58:14;17.20;99.90
14473;DHT22;7322;50.872;4.386;2024-03-29T06:00:49;17.20;99.90
14473;DHT22;7322;50.872;4.386;2024-03-29T06:03:17;17.20;99.90
14473;DHT22;7322;50.872;4.386;2024-03-29T06:05:52;17.20;99.90
14473;DHT22;7322;50.872;4.386;2024-03-29T06:08:29;17.20;99.90
14473;DHT22;7322;50.872;4.386;2024-03-29T06:14:23;17.30;99.90
14473;DHT22;7322;50.872;4.386;2024-03-29T06:17:10;17.30;99.90
14473;DHT22;7322;50.872;4.386;2024-03-29T06:19:58;17.20;99.90
14473;DHT22;7322;50.872;4.386;2024-03-29T06:22:50;17.20;99.90
14473;DHT22;7322;50.872;4.386;2024-03-29T06:25:30;17.20;99.90
14473;DHT22;7322;50.872;4.386;2024-03-29T06:28:11;17.30;99.90
14473;DHT22;7322;50.872;4.386;2024-03-29T06:30:59;17.30;99.90
14473;DHT22;7322;50.872;4.386;2024-03-29T06:33:35;17.30;99.90
14473;DHT22;7322;50.872;4.386;2024-03-29T06:36:05;17.30;99.90
14473;DHT22;7322;50.872;4.386;2024-03-29T06:38:40;17.30;99.90
14473;DHT22;7322;50.872;4.386;2024-03-29T06:41:08;17.30;99.90
14473;DHT22;7322;50.872;4.386;2024-03-29T06:43:37;17.30;99.90
14473;DHT22;7322;50.872;4.386;2024-03-29T06:46:05;17.30;99.90
14473;DHT22;7322;50.872;4.386;2024-03-29T06:48:36;17.30;99.90
14473;DHT22;7322;50.872;4.386;2024-03-29T06:51:09;17.30;99.90
14473;DHT22;7322;50.872;4.386;2024-03-29T06:53:50;17.30;99.90
14473;DHT22;7322;50.872;4.386;2024-03-29T06:56:33;17.30;99.90
14473;DHT22;7322;50.872;4.386;2024-03-29T06:59:00;17.40;99.90
14473;DHT22;7322;50.872;4.386;2024-03-29T07:01:48;17.30;99.90
14473;DHT22;7322;50.872;4.386;2024-03-29T07:04:23;17.40;99.90
14473;DHT22;7322;50.872;4.386;2024-03-29T07:06:58;17.40;99.90
14473;DHT22;7322;50.872;4.386;2024-03-29T07:09:32;17.40;99.90
14473;DHT22;7322;50.872;4.386;2024-03-29T07:12:01;17.40;99.90
14473;DHT22;7322;50.872;4.386;2024-03-29T07:14:30;17.40;99.90
14473;DHT22;7322;50.872;4.386;2024-03-29T07:17:01;17.40;99.90
14473;DHT22;7322;50.872;4.386;2024-03-29T07:19:29;17.40;99.90
14473;DHT22;7322;50.872;4.386;2024-03-29T07:21:57;17.40;99.90
14473;DHT22;7322;50.872;4.386;2024-03-29T07:24:27;17.40;99.90
14473;DHT22;7322;50.872;4.386;2024-03-29T07:26:54;17.40;99.90
14473;DHT22;7322;50.872;4.386;2024-03-29T07:29:21;17.40;99.90
14473;DHT22;7322;50.872;4.386;2024-03-29T07:31:49;17.40;99.90
14473;DHT22;7322;50.872;4.386;2024-03-29T07:34:19;17.40;99.90
14473;DHT22;7322;50.872;4.386;2024-03-29T07:36:45;17.40;99.90
14473;DHT22;7322;50.872;4.386;2024-03-29T07:39:12;17.50;99.90
14473;DHT22;7322;50.872;4.386;2024-03-29T07:41:39;17.50;99.90
14473;DHT22;7322;50.872;4.386;2024-03-29T07:44:06;17.50;99.90
14473;DHT22;7322;50.872;4.386;2024-03-29T07:46:35;17.50;99.90
14473;DHT22;7322;50.872;4.386;2024-03-29T07:49:03;17.50;99.90
14473;DHT22;7322;50.872;4.386;2024-03-29T07:51:32;17.50;99.90
14473;DHT22;7322;50.872;4.386;2024-03-29T07:53:59;17.50;99.90
14473;DHT22;7322;50.872;4.386;2024-03-29T07:56:27;17.60;99.90
14473;DHT22;7322;50.872;4.386;2024-03-29T07:58:54;17.60;99.90
14473;DHT22;7322;50.872;4.386;2024-03-29T08:01:22;17.60;99.90
14473;DHT22;7322;50.872;4.386;2024-03-29T08:03:51;17.60;99.90
14473;DHT22;7322;50.872;4.386;2024-03-29T08:06:19;17.60;99.90
14473;DHT22;7322;50.872;4.386;2024-03-29T08:08:47;17.60;99.90
14473;DHT22;7322;50.872;4.386;2024-03-29T08:11:16;17.70;99.90
14473;DHT22;7322;50.872;4.386;2024-03-29T08:13:43;17.70;99.90
14473;DHT22;7322;50.872;4.386;2024-03-29T08:16:11;17.70;99.90
14473;DHT22;7322;50.872;4.386;2024-03-29T08:18:38;17.70;99.90
14473;DHT22;7322;50.872;4.386;2024-03-29T08:21:05;17.70;99.90
14473;DHT22;7322;50.872;4.386;2024-03-29T08:23:38;17.70;99.90
14473;DHT22;7322;50.872;4.386;2024-03-29T08:26:07;17.70;99.90
14473;DHT22;7322;50.872;4.386;2024-03-29T08:28:34;17.70;99.90
14473;DHT22;7322;50.872;4.386;2024-03-29T08:31:05;17.70;99.90
14473;DHT22;7322;50.872;4.386;2024-03-29T08:33:34;17.70;99.90
14473;DHT22;7322;50.872;4.386;2024-03-29T08:36:04;17.70;99.90
14473;DHT22;7322;50.872;4.386;2024-03-29T08:38:32;17.70;99.90
14473;DHT22;7322;50.872;4.386;2024-03-29T08:40:59;17.70;99.90
14473;DHT22;7322;50.872;4.386;2024-03-29T08:43:28;17.70;99.90
14473;DHT22;7322;50.872;4.386;2024-03-29T08:45:55;17.80;99.90
14473;DHT22;7322;50.872;4.386;2024-03-29T08:48:23;17.80;99.90
14473;DHT22;7322;50.872;4.386;2024-03-29T08:50:51;17.70;99.90
14473;DHT22;7322;50.872;4.386;2024-03-29T08:53:18;17.60;99.90
14473;DHT22;7322;50.872;4.386;2024-03-29T08:55:47;17.60;99.90
14473;DHT22;7322;50.872;4.386;2024-03-29T08:58:15;17.60;99.90
14473;DHT22;7322;50.872;4.386;2024-03-29T09:00:54;17.70;99.90
14473;DHT22;7322;50.872;4.386;2024-03-29T09:03:23;17.80;99.90
14473;DHT22;7322;50.872;4.386;2024-03-29T09:05:50;17.70;99.90
14473;DHT22;7322;50.872;4.386;2024-03-29T09:08:20;17.70;99.90
14473;DHT22;7322;50.872;4.386;2024-03-29T09:10:47;17.70;99.90
14473;DHT22;7322;50.872;4.386;2024-03-29T09:13:15;17.70;99.90
14473;DHT22;7322;50.872;4.386;2024-03-29T09:15:42;17.70;99.90
14473;DHT22;7322;50.872;4.386;2024-03-29T09:18:10;17.70;99.90
14473;DHT22;7322;50.872;4.386;2024-03-29T09:20:43;17.70;99.90
14473;DHT22;7322;50.872;4.386;2024-03-29T09:23:10;17.70;99.90
14473;DHT22;7322;50.872;4.386;2024-03-29T09:25:41;17.80;99.90
14473;DHT22;7322;50.872;4.386;2024-03-29T09:28:08;17.80;99.90
14473;DHT22;7322;50.872;4.386;2024-03-29T09:30:42;17.90;99.90
14473;DHT22;7322;50.872;4.386;2024-03-29T09:33:10;17.90;99.90
14473;DHT22;7322;50.872;4.386;2024-03-29T09:35:38;17.90;99.90
14473;DHT22;7322;50.872;4.386;2024-03-29T09:38:05;17.90;99.90
14473;DHT22;7322;50.872;4.386;2024-03-29T09:40:33;17.90;99.90
14473;DHT22;7322;50.872;4.386;2024-03-29T09:43:01;17.90;99.90
14473;DHT22;7322;50.872;4.386;2024-03-29T09:45:31;17.90;99.90
14473;DHT22;7322;50.872;4.386;2024-03-29T09:48:01;18.00;99.90
14473;DHT22;7322;50.872;4.386;2024-03-29T09:50:31;17.90;99.90
14473;DHT22;7322;50.872;4.386;2024-03-29T09:52:59;18.00;99.90
14473;DHT22;7322;50.872;4.386;2024-03-29T09:55:27;18.00;99.90
14473;DHT22;7322;50.872;4.386;2024-03-29T09:57:55;18.00;99.90
14473;DHT22;7322;50.872;4.386;2024-03-29T10:00:23;18.00;99.90
14473;DHT22;7322;50.872;4.386;2024-03-29T10:02:53;18.00;99.90
14473;DHT22;7322;50.872;4.386;2024-03-29T10:05:22;18.00;99.90
14473;DHT22;7322;50.872;4.386;2024-03-29T10:07:54;18.10;99.90
14473;DHT22;7322;50.872;4.386;2024-03-29T10:10:21;18.00;99.90
14473;DHT22;7322;50.872;4.386;2024-03-29T10:12:48;18.00;99.90
14473;DHT22;7322;50.872;4.386;2024-03-29T10:15:16;18.10;99.90
14473;DHT22;7322;50.872;4.386;2024-03-29T10:17:45;18.10;99.90
14473;DHT22;7322;50.872;4.386;2024-03-29T10:20:16;18.10;99.90
14473;DHT22;7322;50.872;4.386;2024-03-29T10:22:44;18.10;99.90
14473;DHT22;7322;50.872;4.386;2024-03-29T10:25:13;18.10;99.90
14473;DHT22;7322;50.872;4.386;2024-03-29T10:27:40;18.00;99.90
14473;DHT22;7322;50.872;4.386;2024-03-29T10:30:08;18.10;99.90
14473;DHT22;7322;50.872;4.386;2024-03-29T10:32:37;18.10;99.90
14473;DHT22;7322;50.872;4.386;2024-03-29T10:35:06;18.00;99.90
14473;DHT22;7322;50.872;4.386;2024-03-29T10:37:33;18.00;99.90
14473;DHT22;7322;50.872;4.386;2024-03-29T10:40:06;18.00;99.90
14473;DHT22;7322;50.872;4.386;2024-03-29T10:42:43;18.00;99.90
14473;DHT22;7322;50.872;4.386;2024-03-29T10:45:10;17.90;99.90
14473;DHT22;7322;50.872;4.386;2024-03-29T10:47:38;18.00;99.90
14473;DHT22;7322;50.872;4.386;2024-03-29T10:50:10;18.00;99.90
14473;DHT22;7322;50.872;4.386;2024-03-29T10:52:39;18.00;99.90
14473;DHT22;7322;50.872;4.386;2024-03-29T10:55:08;18.00;99.90
14473;DHT22;7322;50.872;4.386;2024-03-29T10:57:41;18.00;99.90
14473;DHT22;7322;50.872;4.386;2024-03-29T11:00:11;18.00;99.90
14473;DHT22;7322;50.872;4.386;2024-03-29T11:02:48;18.10;99.90
14473;DHT22;7322;50.872;4.386;2024-03-29T11:05:22;18.00;99.90
14473;DHT22;7322;50.872;4.386;2024-03-29T11:07:52;18.00;99.90
14473;DHT22;7322;50.872;4.386;2024-03-29T11:10:25;18.00;99.90
14473;DHT22;7322;50.872;4.386;2024-03-29T11:13:00;18.10;99.90
14473;DHT22;7322;50.872;4.386;2024-03-29T11:15:30;18.10;99.90
14473;DHT22;7322;50.872;4.386;2024-03-29T11:18:10;18.10;99.90
14473;DHT22;7322;50.872;4.386;2024-03-29T11:20:42;18.10;99.90
14473;DHT22;7322;50.872;4.386;2024-03-29T11:23:22;18.10;99.90
14473;DHT22;7322;50.872;4.386;2024-03-29T11:25:53;18.10;99.90
14473;DHT22;7322;50.872;4.386;2024-03-29T11:28:38;18.10;99.90
14473;DHT22;7322;50.872;4.386;2024-03-29T11:31:14;18.10;99.90
14473;DHT22;7322;50.872;4.386;2024-03-29T11:33:45;18.10;99.90
14473;DHT22;7322;50.872;4.386;2024-03-29T11:36:16;18.20;99.90
14473;DHT22;7322;50.872;4.386;2024-03-29T11:39:01;18.10;99.90
14473;DHT22;7322;50.872;4.386;2024-03-29T11:41:46;18.20;99.90
14473;DHT22;7322;50.872;4.386;2024-03-29T11:44:34;18.20;99.90
14473;DHT22;7322;50.872;4.386;2024-03-29T11:47:04;18.20;99.90
14473;DHT22;7322;50.872;4.386;2024-03-29T11:49:33;18.20;99.90
14473;DHT22;7322;50.872;4.386;2024-03-29T11:52:04;18.20;99.90
14473;DHT22;7322;50.872;4.386;2024-03-29T11:54:38;18.30;99.90
14473;DHT22;7322;50.872;4.386;2024-03-29T11:57:05;18.30;99.90
14473;DHT22;7322;50.872;4.386;2024-03-29T11:59:34;18.30;99.90
14473;DHT22;7322;50.872;4.386;2024-03-29T12:02:01;18.20;99.90
14473;DHT22;7322;50.872;4.386;2024-03-29T12:04:29;18.20;99.90
14473;DHT22;7322;50.872;4.386;2024-03-29T12:06:56;18.20;99.90
14473;DHT22;7322;50.872;4.386;2024-03-29T12:09:23;18.20;99.90
14473;DHT22;7322;50.872;4.386;2024-03-29T12:11:51;18.20;99.90
14473;DHT22;7322;50.872;4.386;2024-03-29T12:14:18;18.20;99.90
14473;DHT22;7322;50.872;4.386;2024-03-29T12:16:46;18.20;99.90
14473;DHT22;7322;50.872;4.386;2024-03-29T12:19:22;18.30;99.90
14473;DHT22;7322;50.872;4.386;2024-03-29T12:21:51;18.30;99.90
14473;DHT22;7322;50.872;4.386;2024-03-29T12:24:18;18.30;99.90
14473;DHT22;7322;50.872;4.386;2024-03-29T12:26:45;18.30;99.90
14473;DHT22;7322;50.872;4.386;2024-03-29T12:29:13;18.30;99.90
14473;DHT22;7322;50.872;4.386;2024-03-29T12:31:40;18.30;99.90
14473;DHT22;7322;50.872;4.386;2024-03-29T12:34:09;18.30;99.90
14473;DHT22;7322;50.872;4.386;2024-03-29T12:36:36;18.30;99.90
14473;DHT22;7322;50.872;4.386;2024-03-29T12:39:03;18.30;99.90
14473;DHT22;7322;50.872;4.386;2024-03-29T12:41:31;18.40;99.90
14473;DHT22;7322;50.872;4.386;2024-03-29T12:44:01;18.30;99.90
14473;DHT22;7322;50.872;4.386;2024-03-29T12:46:28;18.30;99.90
14473;DHT22;7322;50.872;4.386;2024-03-29T12:48:59;18.30;99.90
14473;DHT22;7322;50.872;4.386;2024-03-29T12:51:28;18.40;99.90
14473;DHT22;7322;50.872;4.386;2024-03-29T12:53:56;18.40;99.90
14473;DHT22;7322;50.872;4.386;2024-03-29T12:56:29;18.40;99.90
14473;DHT22;7322;50.872;4.386;2024-03-29T12:58:56;18.40;99.90
14473;DHT22;7322;50.872;4.386;2024-03-29T13:01:24;18.40;99.90
14473;DHT22;7322;50.872;4.386;2024-03-29T13:03:51;18.40;99.90
14473;DHT22;7322;50.872;4.386;2024-03-29T13:06:18;18.40;99.90
14473;DHT22;7322;50.872;4.386;2024-03-29T13:08:47;18.40;99.90
14473;DHT22;7322;50.872;4.386;2024-03-29T13:11:15;18.40;99.90
14473;DHT22;7322;50.872;4.386;2024-03-29T13:13:42;18.40;99.90
14473;DHT22;7322;50.872;4.386;2024-03-29T13:16:09;18.40;99.90
14473;DHT22;7322;50.872;4.386;2024-03-29T13:18:36;18.40;99.90
14473;DHT22;7322;50.872;4.386;2024-03-29T13:21:03;18.40;99.90
14473;DHT22;7322;50.872;4.386;2024-03-29T13:23:31;18.40;99.90
14473;DHT22;7322;50.872;4.386;2024-03-29T13:26:00;18.50;99.90
14473;DHT22;7322;50.872;4.386;2024-03-29T13:28:27;18.50;99.90
14473;DHT22;7322;50.872;4.386;2024-03-29T13:30:54;18.50;99.90
14473;DHT22;7322;50.872;4.386;2024-03-29T13:33:22;18.60;99.90
14473;DHT22;7322;50.872;4.386;2024-03-29T13:35:53;18.60;99.90
14473;DHT22;7322;50.872;4.386;2024-03-29T13:38:22;18.60;99.90
14473;DHT22;7322;50.872;4.386;2024-03-29T13:40:52;18.60;99.90
14473;DHT22;7322;50.872;4.386;2024-03-29T13:43:20;18.50;99.90
14473;DHT22;7322;50.872;4.386;2024-03-29T13:45:48;18.50;99.90
14473;DHT22;7322;50.872;4.386;2024-03-29T13:48:16;18.60;99.90
14473;DHT22;7322;50.872;4.386;2024-03-29T13:50:45;18.60;99.90
14473;DHT22;7322;50.872;4.386;2024-03-29T13:53:14;18.50;99.90
14473;DHT22;7322;50.872;4.386;2024-03-29T13:55:41;18.60;99.90
14473;DHT22;7322;50.872;4.386;2024-03-29T13:58:08;18.60;99.90
14473;DHT22;7322;50.872;4.386;2024-03-29T14:00:37;18.60;99.90
14473;DHT22;7322;50.872;4.386;2024-03-29T14:03:04;18.60;99.90
14473;DHT22;7322;50.872;4.386;2024-03-29T14:05:31;18.60;99.90
14473;DHT22;7322;50.872;4.386;2024-03-29T14:07:58;18.70;99.90
14473;DHT22;7322;50.872;4.386;2024-03-29T14:10:26;18.60;99.90
14473;DHT22;7322;50.872;4.386;2024-03-29T14:12:53;18.70;99.90
14473;DHT22;7322;50.872;4.386;2024-03-29T14:15:20;18.70;99.90
14473;DHT22;7322;50.872;4.386;2024-03-29T14:17:49;18.70;99.90
14473;DHT22;7322;50.872;4.386;2024-03-29T14:20:17;18.70;99.90
14473;DHT22;7322;50.872;4.386;2024-03-29T14:22:44;18.70;99.90
14473;DHT22;7322;50.872;4.386;2024-03-29T14:25:11;18.70;99.90
14473;DHT22;7322;50.872;4.386;2024-03-29T14:27:39;18.70;99.90
14473;DHT22;7322;50.872;4.386;2024-03-29T14:30:13;18.70;99.90
14473;DHT22;7322;50.872;4.386;2024-03-29T14:32:44;18.70;99.90
14473;DHT22;7322;50.872;4.386;2024-03-29T14:35:14;18.70;99.90
14473;DHT22;7322;50.872;4.386;2024-03-29T14:37:43;18.70;99.90
14473;DHT22;7322;50.872;4.386;2024-03-29T14:40:12;18.70;99.90
14473;DHT22;7322;50.872;4.386;2024-03-29T14:42:40;18.70;99.90
14473;DHT22;7322;50.872;4.386;2024-03-29T14:45:08;18.70;99.90
14473;DHT22;7322;50.872;4.386;2024-03-29T14:47:37;18.70;99.90
14473;DHT22;7322;50.872;4.386;2024-03-29T14:50:05;18.70;99.90
14473;DHT22;7322;50.872;4.386;2024-03-29T14:52:36;18.70;99.90
14473;DHT22;7322;50.872;4.386;2024-03-29T14:55:04;18.70;99.90
14473;DHT22;7322;50.872;4.386;2024-03-29T14:57:31;18.70;99.90
14473;DHT22;7322;50.872;4.386;2024-03-29T14:59:58;18.70;99.90
14473;DHT22;7322;50.872;4.386;2024-03-29T15:02:26;18.70;99.90
14473;DHT22;7322;50.872;4.386;2024-03-29T15:04:53;18.70;99.90
14473;DHT22;7322;50.872;4.386;2024-03-29T15:07:23;18.80;99.90
14473;DHT22;7322;50.872;4.386;2024-03-29T15:09:53;18.80;99.90
14473;DHT22;7322;50.872;4.386;2024-03-29T15:12:32;18.80;99.90
14473;DHT22;7322;50.872;4.386;2024-03-29T15:15:03;18.80;99.90
14473;DHT22;7322;50.872;4.386;2024-03-29T15:17:57;18.80;99.90
14473;DHT22;7322;50.872;4.386;2024-03-29T15:20:24;18.80;99.90
14473;DHT22;7322;50.872;4.386;2024-03-29T15:22:54;18.80;99.90
14473;DHT22;7322;50.872;4.386;2024-03-29T15:25:27;18.80;99.90
14473;DHT22;7322;50.872;4.386;2024-03-29T15:27:54;18.80;99.90
14473;DHT22;7322;50.872;4.386;2024-03-29T15:30:39;18.80;99.90
14473;DHT22;7322;50.872;4.386;2024-03-29T15:33:09;18.80;99.90
14473;DHT22;7322;50.872;4.386;2024-03-29T15:35:38;18.80;99.90
14473;DHT22;7322;50.872;4.386;2024-03-29T15:38:05;18.80;99.90
14473;DHT22;7322;50.872;4.386;2024-03-29T15:40:38;18.80;99.90
14473;DHT22;7322;50.872;4.386;2024-03-29T15:43:05;18.80;99.90
14473;DHT22;7322;50.872;4.386;2024-03-29T15:45:32;18.90;99.90
14473;DHT22;7322;50.872;4.386;2024-03-29T15:48:00;18.90;99.90
14473;DHT22;7322;50.872;4.386;2024-03-29T15:50:59;18.90;99.90
14473;DHT22;7322;50.872;4.386;2024-03-29T15:53:27;18.90;99.90
14473;DHT22;7322;50.872;4.386;2024-03-29T15:56:05;18.90;99.90
14473;DHT22;7322;50.872;4.386;2024-03-29T15:58:41;18.90;99.90
14473;DHT22;7322;50.872;4.386;2024-03-29T16:01:08;18.90;99.90
14473;DHT22;7322;50.872;4.386;2024-03-29T16:03:36;18.90;99.90
14473;DHT22;7322;50.872;4.386;2024-03-29T16:06:03;18.90;99.90
14473;DHT22;7322;50.872;4.386;2024-03-29T16:08:30;18.90;99.90
14473;DHT22;7322;50.872;4.386;2024-03-29T16:11:01;18.90;99.90